createdAt,value
2019-06-07T00:01:09.558Z,8.63
2019-06-07T00:03:40.851Z,8.63
2019-06-07T00:06:15.108Z,8.20
2019-06-07T00:08:45.738Z,8.37
2019-06-07T00:11:20.358Z,8.57
2019-06-07T00:13:51.234Z,8.37
2019-06-07T00:16:23.415Z,8.57
2019-06-07T00:18:55.508Z,7.83
2019-06-07T00:22:12.677Z,7.67
2019-06-07T00:23:59.842Z,8.73
2019-06-07T00:26:31.710Z,7.67
2019-06-07T00:29:02.691Z,7.57
2019-06-07T00:31:34.279Z,8.30
2019-06-07T00:34:05.274Z,8.40
2019-06-07T00:36:37.197Z,7.77
2019-06-07T00:39:10.547Z,7.40
2019-06-07T00:41:43.131Z,8.50
2019-06-07T00:44:15.151Z,8.17
2019-06-07T00:46:48.245Z,7.83
2019-06-07T00:49:35.620Z,8.20
2019-06-07T00:51:53.813Z,8.20
2019-06-07T00:54:26.152Z,8.70
2019-06-07T00:56:57.502Z,8.27
2019-06-07T00:59:29.860Z,8.57
2019-06-07T01:02:01.802Z,8.10
2019-06-07T01:04:33.484Z,9.37
2019-06-07T01:07:04.914Z,9.23
2019-06-07T01:09:36.192Z,8.57
2019-06-07T01:12:08.044Z,8.70
2019-06-07T01:14:40.139Z,8.07
2019-06-07T01:17:41.554Z,9.57
2019-06-07T01:20:01.291Z,8.50
2019-06-07T01:22:33.400Z,8.10
2019-06-07T01:25:05.472Z,8.30
2019-06-07T01:27:36.956Z,8.20
2019-06-07T01:30:11.590Z,7.90
2019-06-07T01:32:43.520Z,7.47
2019-06-07T01:35:16.577Z,7.83
2019-06-07T01:37:48.550Z,8.00
2019-06-07T01:40:27.788Z,8.87
2019-06-07T01:42:54.499Z,8.37
2019-06-07T01:45:27.088Z,8.30
2019-06-07T01:47:58.783Z,8.30
2019-06-07T01:50:31.644Z,8.17
2019-06-07T01:53:03.503Z,8.37
2019-06-07T01:55:35.223Z,8.43
2019-06-07T01:58:07.673Z,8.33
2019-06-07T02:00:39.052Z,8.90
2019-06-07T02:03:10.392Z,8.27
2019-06-07T02:05:41.692Z,8.43
2019-06-07T02:08:13.082Z,8.57
2019-06-07T02:10:44.163Z,8.40
2019-06-07T02:13:16.124Z,8.37
2019-06-07T02:15:47.393Z,8.63
2019-06-07T02:18:21.813Z,8.80
2019-06-07T02:20:51.662Z,8.87
2019-06-07T02:23:27.518Z,8.17
2019-06-07T02:25:55.917Z,9.27
2019-06-07T02:28:36.502Z,8.57
2019-06-07T02:31:00.756Z,7.63
2019-06-07T02:33:39.544Z,9.43
2019-06-07T02:36:06.643Z,7.90
2019-06-07T02:38:38.195Z,8.57
2019-06-07T02:41:09.851Z,8.27
2019-06-07T02:43:41.476Z,7.70
2019-06-07T02:46:32.507Z,7.90
2019-06-07T02:48:57.003Z,8.40
2019-06-07T02:51:35.769Z,8.07
2019-06-07T02:54:02.223Z,7.93
2019-06-07T02:56:45.017Z,8.37
2019-06-07T02:59:07.183Z,8.70
2019-06-07T03:01:42.256Z,8.57
2019-06-07T03:04:13.289Z,8.80
2019-06-07T03:06:45.511Z,8.90
2019-06-07T03:09:19.020Z,9.30
2019-06-07T03:11:54.819Z,9.40
2019-06-07T03:14:32.516Z,9.53
2019-06-07T03:17:34.710Z,8.77
2019-06-07T03:20:05.998Z,9.23
2019-06-07T03:22:41.595Z,9.23
2019-06-07T03:25:13.720Z,9.30
2019-06-07T03:27:49.931Z,9.93
2019-06-07T03:30:39.029Z,9.10
2019-06-07T03:32:53.182Z,9.30
2019-06-07T03:35:24.502Z,8.90
2019-06-07T03:37:55.760Z,9.67
2019-06-07T03:40:26.775Z,9.57
2019-06-07T03:42:58.382Z,9.30
2019-06-07T03:45:30.770Z,10.03
2019-06-07T03:48:02.878Z,10.73
2019-06-07T03:50:38.753Z,11.47
2019-06-07T03:53:08.424Z,11.23
2019-06-07T03:55:41.259Z,11.10
2019-06-07T04:00:45.668Z,11.17
2019-06-07T04:03:32.776Z,11.07
2019-06-07T04:05:50.885Z,11.73
2019-06-07T04:08:22.286Z,12.30
2019-06-07T04:11:00.315Z,12.43
2019-06-07T04:13:29.008Z,12.00
2019-06-07T04:16:00.749Z,12.57
2019-06-07T04:18:33.182Z,12.23
2019-06-07T04:21:06.267Z,13.20
2019-06-07T04:23:44.865Z,13.13
2019-06-07T04:26:11.465Z,13.33
2019-06-07T04:29:30.856Z,13.10
2019-06-07T04:31:16.279Z,13.13
2019-06-07T04:33:48.001Z,12.80
2019-06-07T04:36:39.472Z,11.87
2019-06-07T04:38:55.666Z,11.47
2019-06-07T04:41:31.038Z,10.53
2019-06-07T04:44:03.262Z,9.57
2019-06-07T04:46:39.295Z,9.90
2019-06-07T04:49:08.027Z,9.67
2019-06-07T04:51:41.165Z,10.27
2019-06-07T04:54:13.737Z,11.93
2019-06-07T04:56:45.224Z,10.50
2019-06-07T05:00:00.279Z,10.43
2019-06-07T05:01:50.209Z,9.77
2019-06-07T05:04:21.596Z,10.77
2019-06-07T05:06:53.199Z,11.20
2019-06-07T05:09:25.577Z,11.17
2019-06-07T05:11:56.573Z,11.57
2019-06-07T05:14:28.450Z,11.27
2019-06-07T05:17:01.156Z,12.07
2019-06-07T05:19:35.224Z,11.13
2019-06-07T05:22:06.550Z,11.80
2019-06-07T05:24:40.742Z,12.13
2019-06-07T05:27:11.150Z,12.87
2019-06-07T05:29:45.962Z,12.20
2019-06-07T05:32:16.378Z,12.67
2019-06-07T05:34:47.927Z,12.47
2019-06-07T05:37:19.201Z,12.50
2019-06-07T05:39:50.955Z,12.43
2019-06-07T05:42:22.620Z,12.40
2019-06-07T05:44:53.765Z,12.57
2019-06-07T05:47:25.519Z,12.90
2019-06-07T05:49:57.168Z,12.73
2019-06-07T05:52:29.138Z,14.03
2019-06-07T05:55:01.008Z,13.70
2019-06-07T05:57:37.304Z,13.93
2019-06-07T06:00:05.889Z,12.33
2019-06-07T06:02:58.716Z,13.70
2019-06-07T06:05:32.319Z,13.70
2019-06-07T06:07:50.440Z,13.70
2019-06-07T06:10:18.472Z,13.93
2019-06-07T06:12:51.950Z,15.17
2019-06-07T06:15:41.727Z,13.03
2019-06-07T06:17:57.463Z,14.67
2019-06-07T06:20:34.656Z,14.77
2019-06-07T06:23:02.995Z,14.70
2019-06-07T06:25:34.914Z,14.40
2019-06-07T06:28:11.945Z,15.37
2019-06-07T06:30:43.782Z,14.93
2019-06-07T06:33:30.727Z,16.20
2019-06-07T06:35:50.562Z,15.43
2019-06-07T06:38:21.766Z,15.47
2019-06-07T06:41:12.127Z,15.87
2019-06-07T06:43:27.440Z,15.87
2019-06-07T06:45:59.481Z,14.37
2019-06-07T06:48:31.569Z,14.37
2019-06-07T06:51:03.705Z,13.37
2019-06-07T06:53:35.067Z,14.10
2019-06-07T06:56:06.227Z,14.73
2019-06-07T06:59:21.983Z,12.37
2019-06-07T07:01:11.518Z,14.23
2019-06-07T07:04:00.193Z,13.60
2019-06-07T07:06:26.988Z,12.80
2019-06-07T07:08:53.627Z,13.17
2019-06-07T07:11:25.461Z,12.53
2019-06-07T07:13:57.354Z,12.37
2019-06-07T07:16:29.052Z,10.83
2019-06-07T07:19:00.544Z,9.03
2019-06-07T07:21:31.832Z,8.47
2019-06-07T07:24:20.086Z,8.47
2019-06-07T07:26:37.487Z,8.77
2019-06-07T07:29:09.347Z,9.83
2019-06-07T07:31:41.045Z,9.80
2019-06-07T07:34:32.100Z,9.63
2019-06-07T07:36:48.325Z,9.57
2019-06-07T07:39:19.131Z,9.87
2019-06-07T07:42:13.974Z,9.50
2019-06-07T07:44:24.334Z,9.60
2019-06-07T07:46:56.352Z,8.83
2019-06-07T07:49:29.038Z,7.90
2019-06-07T07:52:00.315Z,6.00
2019-06-07T07:54:32.541Z,5.83
2019-06-07T07:57:04.134Z,6.40
2019-06-07T07:59:43.897Z,4.97
2019-06-07T08:02:09.874Z,5.43
2019-06-07T08:05:13.589Z,5.57
2019-06-07T08:07:15.180Z,5.50
2019-06-07T08:09:50.508Z,5.03
2019-06-07T08:12:20.287Z,5.20
2019-06-07T08:14:57.515Z,6.37
2019-06-07T08:17:25.122Z,5.20
2019-06-07T08:19:57.517Z,5.03
2019-06-07T08:22:29.094Z,5.00
2019-06-07T08:25:04.212Z,6.10
2019-06-07T08:27:34.438Z,5.73
2019-06-07T08:30:35.271Z,6.03
2019-06-07T08:32:41.576Z,5.23
2019-06-07T08:36:02.411Z,5.73
2019-06-07T08:40:23.122Z,5.43
2019-06-07T08:43:19.958Z,5.00
2019-06-07T08:45:28.830Z,4.40
2019-06-07T08:48:07.460Z,4.67
2019-06-07T08:50:34.387Z,4.97
2019-06-07T08:53:12.087Z,6.10
2019-06-07T08:55:39.050Z,5.63
2019-06-07T08:58:10.271Z,6.13
2019-06-07T09:00:46.677Z,6.13
2019-06-07T09:03:14.606Z,6.60
2019-06-07T09:05:46.317Z,5.73
2019-06-07T09:08:29.781Z,6.70
2019-06-07T09:10:50.546Z,5.67
2019-06-07T09:13:22.551Z,5.80
2019-06-07T09:15:55.957Z,6.57
2019-06-07T09:18:42.314Z,6.57
2019-06-07T09:21:04.021Z,6.40
2019-06-07T09:23:33.971Z,7.70
2019-06-07T09:26:17.765Z,6.80
2019-06-07T09:28:39.885Z,8.13
2019-06-07T09:31:12.841Z,6.80
2019-06-07T09:33:44.619Z,7.60
2019-06-07T09:36:16.643Z,7.93
2019-06-07T09:38:49.415Z,7.33
2019-06-07T09:41:21.408Z,7.70
2019-06-07T09:44:05.215Z,8.47
2019-06-07T09:46:27.665Z,7.70
2019-06-07T09:49:14.228Z,8.60
2019-06-07T09:51:32.540Z,8.27
2019-06-07T09:54:08.119Z,8.17
2019-06-07T09:56:36.949Z,8.17
2019-06-07T09:59:12.671Z,8.43
2019-06-07T10:01:42.367Z,8.63
2019-06-07T10:04:29.706Z,8.33
2019-06-07T10:06:47.074Z,9.00
2019-06-07T10:11:51.720Z,9.57
2019-06-07T10:14:23.984Z,14.27
2019-06-07T10:16:55.316Z,53.70
2019-06-07T10:19:26.888Z,184.40
2019-06-07T10:21:59.127Z,229.50
2019-06-07T10:24:32.048Z,196.07
2019-06-07T10:27:04.015Z,134.17
2019-06-07T10:29:35.844Z,294.17
2019-06-07T10:32:07.273Z,6.03
2019-06-07T10:34:38.365Z,36.07
2019-06-07T10:37:14.833Z,80.23
2019-06-07T10:39:48.575Z,24.80
2019-06-07T10:42:18.293Z,213.67
2019-06-07T10:44:50.906Z,346.10
2019-06-07T10:47:22.525Z,82.93
2019-06-07T10:49:55.411Z,26.97
2019-06-07T10:52:27.196Z,24.03
2019-06-07T10:54:59.555Z,7.13
2019-06-07T10:57:30.884Z,6.33
2019-06-07T11:00:03.463Z,6.00
2019-06-07T11:02:36.803Z,6.87
2019-06-07T11:05:10.387Z,6.07
2019-06-07T11:07:43.711Z,6.80
2019-06-07T11:10:19.377Z,6.67
2019-06-07T11:12:48.801Z,8.67
2019-06-07T11:15:20.501Z,8.57
2019-06-07T11:17:52.327Z,7.40
2019-06-07T11:20:23.910Z,8.27
2019-06-07T11:22:55.270Z,9.20
2019-06-07T11:25:26.936Z,87.10
2019-06-07T11:27:58.882Z,56.53
2019-06-07T11:30:30.340Z,69.17
2019-06-07T11:33:01.764Z,49.23
2019-06-07T11:35:33.848Z,62.17
2019-06-07T11:38:06.354Z,39.17
2019-06-07T11:40:38.340Z,16.80
2019-06-07T11:43:10.762Z,22.00
2019-06-07T11:45:42.499Z,19.40
2019-06-07T11:48:15.382Z,18.97
2019-06-07T11:50:47.152Z,18.27
2019-06-07T11:53:19.977Z,30.63
2019-06-07T11:55:52.018Z,22.33
2019-06-07T11:58:24.093Z,25.33
2019-06-07T12:00:55.706Z,20.97
2019-06-07T12:03:27.577Z,54.00
2019-06-07T12:05:58.613Z,64.30
2019-06-07T12:08:30.116Z,47.33
2019-06-07T12:11:01.401Z,65.37
2019-06-07T12:13:33.248Z,23.30
2019-06-07T12:16:05.024Z,22.30
2019-06-07T12:18:37.874Z,23.50
2019-06-07T12:21:09.534Z,21.17
2019-06-07T12:23:41.911Z,21.03
2019-06-07T12:26:14.537Z,23.50
2019-06-07T12:28:46.555Z,19.40
2019-06-07T12:31:19.241Z,25.33
2019-06-07T12:33:52.402Z,22.53
2019-06-07T12:36:24.098Z,20.57
2019-06-07T12:38:55.341Z,23.13
2019-06-07T12:41:27.930Z,63.83
2019-06-07T12:43:59.731Z,59.40
2019-06-07T12:46:31.734Z,44.73
2019-06-07T12:49:03.071Z,58.70
2019-06-07T12:51:35.673Z,33.57
2019-06-07T12:54:06.762Z,25.27
2019-06-07T12:56:39.798Z,22.10
2019-06-07T12:59:11.422Z,24.00
2019-06-07T13:01:42.964Z,22.83
2019-06-07T13:04:14.556Z,22.77
2019-06-07T13:06:46.407Z,24.50
2019-06-07T13:09:17.820Z,22.27
2019-06-07T13:11:49.427Z,68.03
2019-06-07T13:14:22.033Z,41.37
2019-06-07T13:16:54.468Z,24.60
2019-06-07T13:19:26.114Z,24.30
2019-06-07T13:21:57.933Z,25.37
2019-06-07T13:24:29.470Z,21.77
2019-06-07T13:27:00.777Z,27.27
2019-06-07T13:29:32.524Z,30.30
2019-06-07T13:32:04.687Z,24.90
2019-06-07T13:34:36.457Z,21.27
2019-06-07T13:37:08.021Z,22.57
2019-06-07T13:39:39.860Z,19.80
2019-06-07T13:42:11.390Z,21.23
2019-06-07T13:44:43.239Z,21.53
2019-06-07T13:47:16.842Z,24.93
2019-06-07T13:49:48.537Z,23.13
2019-06-07T13:52:20.160Z,30.83
2019-06-07T13:54:51.942Z,21.73
2019-06-07T13:57:24.407Z,21.13
2019-06-07T13:59:56.610Z,21.47
2019-06-07T14:02:29.831Z,27.17
2019-06-07T14:05:02.090Z,26.50
2019-06-07T14:07:33.237Z,25.87
2019-06-07T14:10:04.663Z,25.43
2019-06-07T14:12:36.053Z,30.63
2019-06-07T14:15:08.519Z,24.87
2019-06-07T14:17:40.439Z,23.30
2019-06-07T14:20:12.588Z,29.60
2019-06-07T14:22:44.445Z,22.13
2019-06-07T14:25:17.613Z,30.70
2019-06-07T14:27:49.670Z,23.30
2019-06-07T14:30:21.950Z,24.80
2019-06-07T14:32:53.651Z,23.70
2019-06-07T14:35:24.982Z,28.13
2019-06-07T14:37:57.099Z,23.93
2019-06-07T14:40:28.184Z,24.30
2019-06-07T14:42:59.273Z,23.90
2019-06-07T14:45:32.758Z,23.70
2019-06-07T14:48:03.894Z,22.50
2019-06-07T14:50:35.832Z,21.47
2019-06-07T14:53:07.127Z,24.40
2019-06-07T14:55:39.142Z,20.70
2019-06-07T14:58:10.681Z,24.30
2019-06-07T15:00:46.143Z,22.57
2019-06-07T15:03:17.677Z,24.47
2019-06-07T15:05:50.828Z,23.33
2019-06-07T15:08:22.834Z,19.73
2019-06-07T15:10:54.661Z,24.37
2019-06-07T15:13:27.469Z,21.27
2019-06-07T15:15:59.308Z,27.83
2019-06-07T15:18:33.904Z,25.27
2019-06-07T15:21:05.173Z,27.57
2019-06-07T15:23:39.423Z,20.33
2019-06-07T15:26:10.865Z,20.93
2019-06-07T15:28:42.528Z,20.87
2019-06-07T15:31:14.176Z,20.67
2019-06-07T15:33:45.524Z,19.13
2019-06-07T15:36:16.547Z,26.23
2019-06-07T15:38:48.208Z,27.60
2019-06-07T15:41:20.213Z,24.83
2019-06-07T15:43:51.223Z,21.57
2019-06-07T15:46:22.492Z,25.50
2019-06-07T15:48:53.887Z,19.60
2019-06-07T15:51:25.276Z,21.20
2019-06-07T15:53:57.358Z,20.70
2019-06-07T15:56:28.658Z,20.43
2019-06-07T15:59:00.029Z,22.67
2019-06-07T16:01:31.228Z,22.07
2019-06-07T16:04:03.283Z,21.03
2019-06-07T16:06:36.057Z,21.30
2019-06-07T16:09:08.930Z,20.60
2019-06-07T16:11:41.683Z,17.57
2019-06-07T16:14:13.977Z,20.60
2019-06-07T16:16:46.791Z,17.10
2019-06-07T16:19:19.138Z,17.37
2019-06-07T16:21:53.925Z,19.53
2019-06-07T16:24:27.817Z,21.37
2019-06-07T16:26:59.167Z,19.00
2019-06-07T16:29:36.427Z,16.33
2019-06-07T16:32:09.371Z,20.10
2019-06-07T16:34:45.967Z,17.63
2019-06-07T16:37:17.997Z,19.67
2019-06-07T16:39:49.362Z,27.03
2019-06-07T16:42:21.723Z,32.30
2019-06-07T16:44:53.697Z,29.10
2019-06-07T16:47:25.500Z,32.57
2019-06-07T16:49:57.212Z,28.40
2019-06-07T16:52:37.175Z,31.97
2019-06-07T16:55:11.636Z,32.77
2019-06-07T16:57:43.015Z,34.30
2019-06-07T17:00:17.435Z,26.07
2019-06-07T17:02:49.205Z,34.33
2019-06-07T17:05:22.500Z,31.23
2019-06-07T17:07:53.875Z,26.93
2019-06-07T17:10:25.737Z,24.73
2019-06-07T17:12:58.008Z,36.33
2019-06-07T17:15:31.681Z,24.77
2019-06-07T17:18:07.532Z,42.73
2019-06-07T17:20:51.850Z,43.07
2019-06-07T17:23:24.738Z,38.23
2019-06-07T17:25:56.037Z,41.47
2019-06-07T17:28:32.506Z,32.63
2019-06-07T17:31:07.554Z,36.37
2019-06-07T17:33:48.165Z,46.40
2019-06-07T17:36:19.183Z,35.37
2019-06-07T17:38:52.202Z,26.93
2019-06-07T17:41:23.767Z,27.37
2019-06-07T17:44:00.189Z,21.97
2019-06-07T17:46:29.354Z,28.30
2019-06-07T17:49:00.400Z,26.77
2019-06-07T17:51:31.931Z,22.57
2019-06-07T17:54:03.316Z,28.83
2019-06-07T17:56:34.988Z,24.53
2019-06-07T17:59:06.778Z,27.33
2019-06-07T18:01:41.759Z,38.60
2019-06-07T18:04:12.734Z,46.53
2019-06-07T18:06:45.319Z,72.27
2019-06-07T18:09:17.583Z,46.70
2019-06-07T18:11:50.025Z,60.07
2019-06-07T18:14:22.172Z,53.17
2019-06-07T18:16:54.845Z,58.63
2019-06-07T18:19:26.243Z,50.27
2019-06-07T18:21:59.104Z,72.53
2019-06-07T18:24:30.627Z,115.97
2019-06-07T18:27:02.248Z,120.03
2019-06-07T18:29:33.843Z,146.27
2019-06-07T18:32:05.030Z,164.53
2019-06-07T18:34:36.839Z,131.63
2019-06-07T18:37:08.460Z,134.17
2019-06-07T18:39:40.041Z,110.60
2019-06-07T18:42:11.997Z,154.90
2019-06-07T18:44:43.744Z,270.47
2019-06-07T18:47:14.772Z,222.97
2019-06-07T18:49:47.392Z,187.43
2019-06-07T18:52:27.581Z,269.10
2019-06-07T18:54:59.705Z,241.03
2019-06-07T18:57:30.741Z,259.43
2019-06-07T19:00:02.099Z,206.03
2019-06-07T19:02:33.951Z,279.13
2019-06-07T19:05:06.012Z,738.57
2019-06-07T19:07:37.617Z,926.83
2019-06-07T19:10:10.055Z,928.83
2019-06-07T19:12:42.015Z,436.03
2019-06-07T19:15:17.165Z,126.43
2019-06-07T19:17:49.643Z,30.57
2019-06-07T19:20:22.765Z,19.80
2019-06-07T19:22:56.358Z,15.20
2019-06-07T19:25:28.320Z,13.93
2019-06-07T19:28:01.033Z,12.13
2019-06-07T19:30:33.188Z,12.43
2019-06-07T19:33:04.366Z,12.07
2019-06-07T19:35:35.655Z,12.23
2019-06-07T19:38:06.737Z,12.93
2019-06-07T19:40:38.523Z,12.27
2019-06-07T19:43:10.296Z,12.03
2019-06-07T19:45:42.335Z,12.73
2019-06-07T19:48:13.975Z,12.70
2019-06-07T19:50:45.653Z,12.27
2019-06-07T19:53:17.550Z,12.53
2019-06-07T19:55:49.198Z,12.00
2019-06-07T19:58:21.019Z,13.03
2019-06-07T20:00:53.380Z,12.77
2019-06-07T20:03:24.653Z,12.40
2019-06-07T20:05:56.096Z,13.17
2019-06-07T20:08:27.595Z,12.83
2019-06-07T20:10:59.163Z,13.27
2019-06-07T20:13:46.494Z,13.53
2019-06-07T20:16:21.206Z,13.60
2019-06-07T20:18:52.473Z,12.73
2019-06-07T20:21:23.819Z,13.23
2019-06-07T20:23:55.121Z,13.13
2019-06-07T20:26:26.831Z,13.37
2019-06-07T20:28:59.274Z,13.73
2019-06-07T20:31:31.114Z,13.37
2019-06-07T20:34:04.202Z,14.30
2019-06-07T20:36:35.872Z,13.37
2019-06-07T20:39:08.382Z,13.97
2019-06-07T20:41:40.347Z,13.47
2019-06-07T20:44:12.599Z,14.60
2019-06-07T20:46:43.985Z,14.37
2019-06-07T20:49:15.887Z,15.37
2019-06-07T20:51:47.770Z,14.23
2019-06-07T20:54:19.200Z,15.47
2019-06-07T20:56:51.087Z,14.33
2019-06-07T20:59:22.693Z,14.37
2019-06-07T21:01:54.389Z,14.80
2019-06-07T21:04:26.730Z,15.73
2019-06-07T21:06:59.168Z,16.57
2019-06-07T21:09:30.748Z,15.77
2019-06-07T21:12:02.262Z,17.23
2019-06-07T21:14:34.106Z,17.80
2019-06-07T21:17:06.204Z,17.67
2019-06-07T21:19:37.640Z,18.60
2019-06-07T21:22:10.859Z,19.50
2019-06-07T21:24:43.646Z,20.00
2019-06-07T21:27:14.946Z,20.80
2019-06-07T21:29:46.580Z,19.83
2019-06-07T21:32:18.505Z,12.67
2019-06-07T21:34:50.712Z,10.80
2019-06-07T21:37:22.351Z,6.20
2019-06-07T21:39:54.425Z,5.40
2019-06-07T21:42:26.393Z,6.50
2019-06-07T21:44:57.900Z,5.40
2019-06-07T21:47:29.643Z,6.13
2019-06-07T21:50:08.727Z,6.37
2019-06-07T21:52:40.681Z,5.63
2019-06-07T21:55:13.712Z,5.90
2019-06-07T21:57:46.041Z,6.17
2019-06-07T22:00:23.447Z,5.00
2019-06-07T22:02:56.332Z,4.10
2019-06-07T22:05:30.081Z,7.27
2019-06-07T22:08:02.104Z,9.33
2019-06-07T22:10:34.748Z,10.43
2019-06-07T22:13:10.121Z,5.50
2019-06-07T22:15:42.429Z,4.57
2019-06-07T22:18:14.999Z,2.40
2019-06-07T22:20:46.447Z,1.30
2019-06-07T22:23:20.027Z,1.27
2019-06-07T22:25:51.622Z,1.10
2019-06-07T22:28:23.233Z,1.30
2019-06-07T22:30:54.934Z,1.30
2019-06-07T22:33:26.382Z,1.30
2019-06-07T22:35:57.973Z,1.57
2019-06-07T22:38:29.857Z,1.67
2019-06-07T22:41:01.448Z,1.30
2019-06-07T22:43:33.003Z,1.40
2019-06-07T22:46:04.733Z,1.87
2019-06-07T22:48:36.096Z,1.80
2019-06-07T22:51:11.454Z,1.73
2019-06-07T22:53:42.739Z,1.93
2019-06-07T22:56:26.064Z,1.90
2019-06-07T22:58:57.575Z,1.70
2019-06-07T23:01:29.535Z,1.80
2019-06-07T23:04:01.187Z,2.40
2019-06-07T23:06:32.196Z,1.80
2019-06-07T23:09:04.019Z,1.43
2019-06-07T23:11:36.459Z,1.60
2019-06-07T23:14:09.134Z,1.47
2019-06-07T23:16:54.841Z,1.60
2019-06-07T23:19:14.183Z,1.73
2019-06-07T23:21:46.332Z,1.77
2019-06-07T23:24:19.583Z,1.60
2019-06-07T23:26:51.585Z,1.70
2019-06-07T23:29:23.738Z,1.60
2019-06-07T23:31:56.606Z,1.40
2019-06-07T23:34:27.885Z,1.70
2019-06-07T23:37:00.290Z,1.60
2019-06-07T23:39:31.885Z,1.30
2019-06-07T23:42:03.442Z,1.33
2019-06-07T23:44:35.566Z,1.50
2019-06-07T23:47:11.430Z,1.50
2019-06-07T23:49:40.918Z,1.10
2019-06-07T23:52:13.835Z,1.10
2019-06-07T23:54:45.544Z,1.10
2019-06-07T23:57:19.248Z,1.00
2019-06-07T23:59:50.392Z,1.07
